Time;durP1;ratioP1;P1;durP2;ratioP2;P2;SDS_P1;SDS_P2;PMS_P1;PMS_P2;Temp;Humidity;BMP_temperature;BMP_pressure;BME280_temperature;BME280_humidity;BME280_pressure;Samples;Min_cycle;Max_cycle;Signal;HPM_P1;HPM_P2
2022/08/16 00:01:26;;;;;;;6.82;5.53;;;21.00;99.90;;;;;;5028646;28;20046;-67
2022/08/16 00:03:59;;;;;;;6.95;5.45;;;21.00;99.90;;;;;;5032394;28;20111;-67
2022/08/16 00:06:28;;;;;;;7.10;6.25;;;21.00;99.90;;;;;;5032953;28;20049;-67
2022/08/16 00:08:54;;;;;;;6.43;5.80;;;21.10;99.90;;;;;;5031816;28;20512;-67
2022/08/16 00:11:21;;;;;;;6.22;5.22;;;21.10;99.90;;;;;;5033029;28;20037;-67
2022/08/16 00:13:49;;;;;;;6.40;5.72;;;21.10;99.90;;;;;;5031895;28;20069;-67
2022/08/16 00:16:25;;;;;;;5.85;5.22;;;21.10;99.90;;;;;;5008006;28;20061;-67
2022/08/16 00:19:13;;;;;;;6.00;5.20;;;21.10;99.90;;;;;;5031372;28;20057;-67
2022/08/16 00:21:41;;;;;;;10.40;5.78;;;21.00;99.90;;;;;;5021168;28;20077;-67
2022/08/16 00:24:08;;;;;;;7.45;5.97;;;21.10;99.90;;;;;;5024172;28;20083;-67
2022/08/16 00:26:39;;;;;;;5.93;5.32;;;21.00;99.90;;;;;;5029973;28;20056;-67
2022/08/16 00:29:12;;;;;;;7.75;5.82;;;21.00;99.90;;;;;;5014616;28;20473;-67
2022/08/16 00:31:42;;;;;;;7.10;6.15;;;21.00;99.90;;;;;;5017274;28;20050;-67
2022/08/16 00:34:27;;;;;;;7.72;5.72;;;20.90;99.90;;;;;;5020056;28;20059;-67
2022/08/16 00:37:14;;;;;;;8.45;5.75;;;20.90;99.90;;;;;;5029596;28;20049;-67
2022/08/16 00:39:44;;;;;;;8.00;5.85;;;20.80;99.90;;;;;;5023331;28;20053;-67
2022/08/16 00:42:13;;;;;;;10.20;6.45;;;20.80;99.90;;;;;;5019047;28;20052;-67
2022/08/16 00:45:21;;;;;;;6.88;5.95;;;20.80;99.90;;;;;;5031396;28;20053;-67
2022/08/16 00:47:50;;;;;;;7.47;5.90;;;20.70;99.90;;;;;;5016578;28;20045;-67
2022/08/16 00:50:22;;;;;;;7.75;6.13;;;20.70;99.90;;;;;;5029009;28;20049;-67
2022/08/16 00:53:04;;;;;;;7.47;6.78;;;20.70;99.90;;;;;;5014142;28;20388;-67
2022/08/16 00:55:31;;;;;;;9.50;6.53;;;20.60;99.90;;;;;;5032245;28;20409;-67
2022/08/16 00:58:03;;;;;;;11.77;6.68;;;20.60;99.90;;;;;;5010736;28;20046;-67
2022/08/16 01:00:39;;;;;;;11.07;7.32;;;20.60;99.90;;;;;;5030617;28;20042;-67
2022/08/16 01:03:09;;;;;;;7.45;6.75;;;20.60;99.90;;;;;;5031247;28;20476;-67
2022/08/16 01:05:38;;;;;;;9.05;7.85;;;20.60;99.90;;;;;;5030485;28;20141;-67
2022/08/16 01:08:05;;;;;;;8.52;6.97;;;20.60;99.90;;;;;;5032051;28;20055;-67
2022/08/16 01:10:54;;;;;;;9.05;7.63;;;20.60;99.90;;;;;;5030696;28;20088;-67
2022/08/16 01:13:27;;;;;;;8.15;7.35;;;20.60;99.90;;;;;;5031476;28;20076;-67
2022/08/16 01:15:59;;;;;;;;;;;20.60;99.90;;;;;;5029175;28;20059;-67
2022/08/16 01:18:37;;;;;;;8.18;7.20;;;20.60;99.90;;;;;;5029474;28;19921;-67
2022/08/16 01:21:28;;;;;;;7.80;6.70;;;20.60;99.90;;;;;;5020286;28;20050;-67
2022/08/16 01:24:21;;;;;;;8.43;7.28;;;20.60;99.90;;;;;;5012165;28;20398;-67
2022/08/16 01:27:25;;;;;;;8.10;7.15;;;20.60;99.90;;;;;;5028790;28;20053;-67
2022/08/16 01:30:08;;;;;;;9.52;7.78;;;20.60;99.90;;;;;;5016600;28;20052;-67
2022/08/16 01:32:48;;;;;;;11.23;8.68;;;20.60;99.90;;;;;;5028321;28;20045;-67
2022/08/16 01:35:41;;;;;;;9.52;8.63;;;20.60;99.90;;;;;;5015735;28;20162;-67
2022/08/16 01:38:24;;;;;;;8.52;7.70;;;20.60;99.90;;;;;;5031555;28;20120;-67
2022/08/16 01:41:00;;;;;;;8.88;8.05;;;20.60;99.90;;;;;;5032776;28;20112;-67
2022/08/16 01:43:28;;;;;;;9.90;8.90;;;20.60;99.90;;;;;;5031231;28;20047;-67
2022/08/16 01:45:58;;;;;;;12.85;9.70;;;20.60;99.90;;;;;;5029834;28;20049;-67
2022/08/16 01:48:26;;;;;;;13.25;8.20;;;20.50;99.90;;;;;;5007201;28;20046;-67
2022/08/16 01:50:54;;;;;;;;;;;20.60;99.90;;;;;;5024443;28;20224;-67
2022/08/16 01:53:40;;;;;;;9.52;8.52;;;20.50;99.90;;;;;;5033673;28;19925;-67
2022/08/16 01:56:08;;;;;;;9.40;8.40;;;20.50;99.90;;;;;;5032377;28;20061;-67
2022/08/16 01:58:52;;;;;;;9.63;8.45;;;20.50;99.90;;;;;;5016984;28;20379;-67
2022/08/16 02:01:21;;;;;;;10.23;9.27;;;20.50;99.90;;;;;;5027316;28;20137;-67
2022/08/16 02:03:48;;;;;;;14.68;10.07;;;20.50;99.90;;;;;;5031269;28;20080;-66
2022/08/16 02:06:18;;;;;;;10.43;9.32;;;20.50;99.90;;;;;;5030741;28;20065;-66
2022/08/16 02:09:01;;;;;;;11.50;8.18;;;20.50;99.90;;;;;;5028526;28;20057;-66
2022/08/16 02:11:31;;;;;;;9.20;8.30;;;20.50;99.90;;;;;;5028574;28;20076;-66
2022/08/16 02:14:14;;;;;;;8.90;8.00;;;20.50;99.90;;;;;;4999304;28;20058;-66
2022/08/16 02:16:47;;;;;;;8.75;7.32;;;20.50;99.90;;;;;;5013158;28;20049;-67
2022/08/16 02:19:16;;;;;;;9.80;8.18;;;20.40;99.90;;;;;;5020436;28;20054;-66
2022/08/16 02:21:49;;;;;;;9.63;8.82;;;20.40;99.90;;;;;;5021819;28;20045;-66
2022/08/16 02:24:37;;;;;;;12.32;11.23;;;20.30;99.90;;;;;;5028722;28;20049;-66
2022/08/16 02:27:07;;;;;;;13.77;10.27;;;20.30;99.90;;;;;;5023845;28;20538;-66
2022/08/16 02:29:34;;;;;;;13.35;10.27;;;20.40;99.90;;;;;;5021533;28;20049;-66
2022/08/16 02:32:01;;;;;;;10.55;9.45;;;20.30;99.90;;;;;;5018745;28;20080;-66
2022/08/16 02:34:30;;;;;;;;;;;20.40;99.90;;;;;;5029172;28;20061;-66
2022/08/16 02:37:06;;;;;;;11.82;10.65;;;20.40;99.90;;;;;;5023411;28;19948;-68
2022/08/16 02:39:33;;;;;;;14.57;10.27;;;20.40;99.90;;;;;;5026161;28;20533;-66
2022/08/16 02:42:01;;;;;;;11.20;10.10;;;20.30;99.90;;;;;;5030110;28;20041;-67
2022/08/16 02:44:30;;;;;;;10.60;9.48;;;20.40;99.90;;;;;;5029177;28;20515;-68
2022/08/16 02:46:57;;;;;;;12.07;10.75;;;20.40;99.90;;;;;;5031369;28;20053;-68
2022/08/16 02:49:25;;;;;;;14.73;11.07;;;20.40;99.90;;;;;;5028730;28;20057;-68
2022/08/16 02:52:13;;;;;;;12.43;9.90;;;20.40;99.90;;;;;;5033434;28;20045;-68
2022/08/16 02:54:54;;;;;;;11.05;10.05;;;20.40;99.90;;;;;;5030000;28;20061;-68
2022/08/16 02:57:22;;;;;;;12.32;10.45;;;20.40;99.90;;;;;;5025842;28;20049;-68
2022/08/16 02:59:49;;;;;;;10.75;9.75;;;20.40;99.90;;;;;;5012380;28;20092;-68
2022/08/16 03:02:16;;;;;;;14.18;10.07;;;20.40;99.90;;;;;;5009530;28;20049;-68
2022/08/16 03:04:44;;;;;;;12.82;10.63;;;20.40;99.90;;;;;;5018190;28;20512;-68
2022/08/16 03:07:18;;;;;;;14.18;10.70;;;20.40;99.90;;;;;;5018430;28;20056;-68
2022/08/16 03:09:53;;;;;;;15.45;10.68;;;20.40;99.90;;;;;;5020102;28;20042;-68
2022/08/16 03:12:20;;;;;;;12.25;10.32;;;20.30;99.90;;;;;;5019718;28;20050;-68
2022/08/16 03:15:03;;;;;;;11.25;9.75;;;20.30;99.90;;;;;;5031227;28;20140;-68
2022/08/16 03:17:29;;;;;;;11.38;9.90;;;20.30;99.90;;;;;;5029409;28;20049;-68
2022/08/16 03:19:58;;;;;;;13.13;10.13;;;20.30;99.90;;;;;;5027916;28;20065;-68
2022/08/16 03:22:28;;;;;;;11.10;10.10;;;20.30;99.90;;;;;;5022487;28;20037;-68
2022/08/16 03:24:57;;;;;;;11.00;9.90;;;20.30;99.90;;;;;;5045296;28;20057;-68
2022/08/16 03:27:26;;;;;;;11.20;10.13;;;20.20;99.90;;;;;;5028262;28;20144;-68
2022/08/16 03:29:58;;;;;;;10.63;9.70;;;20.30;99.90;;;;;;5018643;28;20297;-68
2022/08/16 03:32:25;;;;;;;12.05;10.10;;;20.20;99.90;;;;;;5012166;28;20041;-68
2022/08/16 03:34:52;;;;;;;10.38;9.27;;;20.20;99.90;;;;;;5012767;28;20046;-68
2022/08/16 03:37:19;;;;;;;11.43;9.55;;;20.20;99.90;;;;;;5016160;28;20050;-68
2022/08/16 03:39:46;;;;;;;10.55;9.55;;;20.20;99.90;;;;;;5024285;28;20041;-67
2022/08/16 03:42:21;;;;;;;11.40;8.90;;;20.20;99.90;;;;;;5023750;28;20437;-68
2022/08/16 03:44:49;;;;;;;11.93;9.95;;;20.10;99.90;;;;;;5019007;28;20073;-68
2022/08/16 03:47:17;;;;;;;12.05;10.80;;;20.10;99.90;;;;;;5013563;28;20057;-68
2022/08/16 03:49:46;;;;;;;12.50;10.77;;;20.10;99.90;;;;;;5031593;28;20049;-68
2022/08/16 03:52:21;;;;;;;11.90;9.65;;;20.10;99.90;;;;;;5026439;28;20041;-68
2022/08/16 03:54:55;;;;;;;10.25;9.07;;;20.00;99.90;;;;;;5024400;28;20049;-68
2022/08/16 03:57:26;;;;;;;11.10;9.70;;;20.00;99.90;;;;;;5026906;28;20049;-68
2022/08/16 04:00:16;;;;;;;11.55;10.38;;;20.00;99.90;;;;;;5029382;28;20050;-68
2022/08/16 04:03:07;;;;;;;11.20;9.57;;;20.00;99.90;;;;;;4993226;28;20084;-68
2022/08/16 04:05:36;;;;;;;10.60;9.70;;;20.00;99.90;;;;;;5028209;28;20049;-68
2022/08/16 04:08:03;;;;;;;11.07;9.85;;;19.90;99.90;;;;;;5027106;28;20068;-68
2022/08/16 04:10:51;;;;;;;10.82;9.57;;;19.90;99.90;;;;;;5015856;28;20049;-68
2022/08/16 04:13:18;;;;;;;15.18;10.70;;;19.90;99.90;;;;;;5017219;28;20052;-68
2022/08/16 04:15:46;;;;;;;10.60;9.55;;;19.80;99.90;;;;;;5027600;28;20053;-68
2022/08/16 04:18:18;;;;;;;11.27;10.00;;;19.80;99.90;;;;;;5032974;28;20488;-67
2022/08/16 04:20:48;;;;;;;10.23;9.35;;;19.80;99.90;;;;;;5033691;28;20056;-68
2022/08/16 04:23:15;;;;;;;12.50;9.48;;;19.80;99.90;;;;;;5026954;28;20053;-68
2022/08/16 04:25:42;;;;;;;11.52;10.23;;;19.70;99.90;;;;;;5034181;28;20057;-68
2022/08/16 04:28:12;;;;;;;12.63;10.13;;;19.70;99.90;;;;;;5023587;28;20049;-68
2022/08/16 04:30:59;;;;;;;12.75;9.95;;;19.70;99.90;;;;;;5032356;28;20046;-68
2022/08/16 04:33:26;;;;;;;12.50;10.48;;;19.70;99.90;;;;;;5029125;28;20057;-68
2022/08/16 04:35:53;;;;;;;11.48;10.30;;;19.70;99.90;;;;;;5028124;28;20442;-68
2022/08/16 04:38:20;;;;;;;11.80;10.57;;;19.70;99.90;;;;;;5033645;28;20103;-68
2022/08/16 04:40:47;;;;;;;11.93;10.73;;;19.60;99.90;;;;;;5033428;28;20436;-68
2022/08/16 04:43:16;;;;;;;11.60;9.82;;;19.60;99.90;;;;;;5026115;28;20106;-68
2022/08/16 04:45:44;;;;;;;12.07;10.88;;;19.60;99.90;;;;;;5027202;28;20048;-68
2022/08/16 04:48:11;;;;;;;12.02;10.85;;;19.60;99.90;;;;;;5030708;28;20382;-68
2022/08/16 04:50:58;;;;;;;15.63;11.43;;;19.60;99.90;;;;;;5031957;28;20484;-68
2022/08/16 04:53:27;;;;;;;11.23;10.10;;;19.60;99.90;;;;;;5031589;28;20660;-68
2022/08/16 04:55:54;;;;;;;13.80;11.35;;;19.60;99.90;;;;;;5029640;28;20401;-68
2022/08/16 04:58:21;;;;;;;12.18;10.98;;;19.60;99.90;;;;;;5027429;28;20045;-68
2022/08/16 05:01:08;;;;;;;12.77;11.52;;;19.60;99.90;;;;;;5025697;28;20045;-68
2022/08/16 05:03:37;;;;;;;12.80;11.50;;;19.70;99.90;;;;;;5025632;28;20049;-68
2022/08/16 05:06:08;;;;;;;13.32;11.00;;;19.70;99.90;;;;;;5024905;28;20302;-68
2022/08/16 05:08:36;;;;;;;13.82;11.75;;;19.70;99.90;;;;;;5017901;28;20489;-68
2022/08/16 05:11:05;;;;;;;13.45;11.55;;;19.70;99.90;;;;;;5018323;28;20054;-68
2022/08/16 05:13:35;;;;;;;13.02;10.73;;;19.70;99.90;;;;;;5011356;28;20463;-68
2022/08/16 05:16:27;;;;;;;12.80;11.50;;;19.70;99.90;;;;;;5014245;28;20045;-68
2022/08/16 05:18:56;;;;;;;12.48;11.18;;;19.70;99.90;;;;;;5024425;28;20500;-68
2022/08/16 05:21:24;;;;;;;13.68;11.85;;;19.70;99.90;;;;;;5015040;28;20133;-68
2022/08/16 05:24:01;;;;;;;13.50;12.00;;;19.70;99.90;;;;;;5029720;28;20493;-69
2022/08/16 05:26:31;;;;;;;16.33;13.18;;;19.70;99.90;;;;;;5012789;28;20117;-68
2022/08/16 05:28:59;;;;;;;14.15;11.60;;;19.70;99.90;;;;;;5027168;28;20397;-68
2022/08/16 05:31:29;;;;;;;13.23;11.82;;;19.80;99.90;;;;;;5025446;28;20400;-68
2022/08/16 05:34:00;;;;;;;14.75;13.10;;;19.70;99.90;;;;;;5027629;28;20507;-68
2022/08/16 05:36:30;;;;;;;14.27;11.55;;;19.70;99.90;;;;;;5030401;28;20183;-68
2022/08/16 05:39:06;;;;;;;13.82;12.40;;;19.70;99.90;;;;;;5028089;28;20052;-68
2022/08/16 05:41:33;;;;;;;18.10;12.18;;;19.70;99.90;;;;;;5024922;28;20117;-68
2022/08/16 05:44:15;;;;;;;15.82;12.10;;;19.70;99.90;;;;;;5020966;28;20496;-68
2022/08/16 05:46:58;;;;;;;14.93;13.40;;;19.70;99.90;;;;;;5024975;28;20397;-68
2022/08/16 05:49:27;;;;;;;14.32;12.50;;;19.80;99.90;;;;;;5029349;28;20092;-67
2022/08/16 05:52:09;;;;;;;16.48;12.15;;;19.80;99.90;;;;;;5018801;28;20046;-69
2022/08/16 05:54:40;;;;;;;13.68;12.27;;;19.80;99.90;;;;;;5018304;28;20099;-68
2022/08/16 05:57:13;;;;;;;15.40;12.82;;;19.90;99.90;;;;;;5028339;28;20049;-67
2022/08/16 05:59:40;;;;;;;15.63;13.95;;;19.90;99.90;;;;;;5029294;28;20077;-68
2022/08/16 06:02:08;;;;;;;88.70;79.80;;;19.90;99.90;;;;;;5021471;28;20504;-67
2022/08/16 06:04:35;;;;;;;21.02;19.02;;;20.00;99.90;;;;;;5027539;28;20049;-68
2022/08/16 06:07:07;;;;;;;16.42;14.82;;;20.10;99.90;;;;;;5027913;28;20045;-68
2022/08/16 06:09:52;;;;;;;36.05;31.88;;;20.10;99.90;;;;;;5023652;28;20378;-67
2022/08/16 06:12:19;;;;;;;20.77;18.77;;;20.20;99.90;;;;;;5021408;28;20112;-65
2022/08/16 06:14:57;;;;;;;17.02;14.90;;;20.20;99.90;;;;;;5013297;28;20401;-69
2022/08/16 06:17:25;;;;;;;14.57;13.02;;;20.30;99.90;;;;;;5014831;28;20048;-65
2022/08/16 06:20:09;;;;;;;14.50;13.10;;;20.30;99.90;;;;;;5022488;28;20543;-64
2022/08/16 06:22:37;;;;;;;17.23;13.30;;;20.30;99.90;;;;;;5017083;28;20056;-64
2022/08/16 06:25:05;;;;;;;19.27;16.67;;;20.50;99.90;;;;;;5016944;28;21843;-63
2022/08/16 06:27:32;;;;;;;43.53;38.33;;;20.50;99.90;;;;;;5014534;28;20149;-65
2022/08/16 06:30:08;;;;;;;20.75;18.25;;;20.60;99.90;;;;;;5027439;28;20439;-64
2022/08/16 06:32:34;;;;;;;16.13;14.43;;;20.70;99.90;;;;;;5023854;28;20390;-64
2022/08/16 06:35:10;;;;;;;18.77;14.20;;;20.70;99.90;;;;;;5018701;28;20454;-65
2022/08/16 06:37:39;;;;;;;15.27;13.20;;;20.70;99.90;;;;;;5014850;28;20053;-64
2022/08/16 06:40:10;;;;;;;13.80;12.18;;;20.70;99.90;;;;;;5022583;28;20087;-71
2022/08/16 06:42:41;;;;;;;16.52;13.48;;;20.80;99.90;;;;;;5024835;28;20053;-65
2022/08/16 06:45:14;;;;;;;16.15;12.80;;;20.80;99.90;;;;;;5031505;28;20374;-65
2022/08/16 06:47:41;;;;;;;18.55;13.90;;;20.80;99.90;;;;;;5019988;28;20405;-65
2022/08/16 06:50:22;;;;;;;18.23;13.63;;;20.80;99.90;;;;;;4993004;28;20046;-65
2022/08/16 06:52:56;;;;;;;15.15;13.57;;;20.80;99.90;;;;;;5008842;28;20046;-65
2022/08/16 06:55:35;;;;;;;17.90;13.65;;;20.80;99.90;;;;;;5011088;28;20049;-65
2022/08/16 06:58:04;;;;;;;14.02;12.48;;;20.80;99.90;;;;;;5028014;28;20492;-64
2022/08/16 07:00:34;;;;;;;14.48;12.98;;;20.90;99.90;;;;;;5017323;28;20050;-64
2022/08/16 07:03:07;;;;;;;14.40;13.10;;;20.90;99.90;;;;;;5007050;28;20072;-63
2022/08/16 07:05:55;;;;;;;14.05;12.55;;;20.90;99.90;;;;;;5020347;28;20042;-63
2022/08/16 07:08:23;;;;;;;15.07;13.57;;;21.00;99.90;;;;;;5013970;28;20505;-63
2022/08/16 07:10:53;;;;;;;16.23;14.10;;;21.10;99.90;;;;;;5022528;28;20129;-63
2022/08/16 07:13:20;;;;;;;14.45;13.00;;;21.10;99.90;;;;;;5021250;28;20037;-65
2022/08/16 07:16:10;;;;;;;16.83;12.77;;;21.30;99.90;;;;;;5014493;28;20128;-65
2022/08/16 07:18:44;;;;;;;14.82;13.23;;;21.30;99.90;;;;;;5018920;28;20405;-66
2022/08/16 07:21:27;;;;;;;33.75;29.85;;;21.40;99.90;;;;;;5003950;28;20402;-63
2022/08/16 07:24:12;;;;;;;19.17;15.88;;;21.60;99.90;;;;;;5008045;28;20709;-65
2022/08/16 07:26:57;;;;;;;14.00;12.60;;;21.60;99.90;;;;;;5018122;28;20045;-65
2022/08/16 07:29:26;;;;;;;21.42;17.17;;;21.70;99.90;;;;;;5010616;28;20436;-66
2022/08/16 07:31:58;;;;;;;26.67;23.58;;;21.70;99.90;;;;;;5025784;28;20050;-64
2022/08/16 07:34:27;;;;;;;19.77;14.55;;;21.80;99.90;;;;;;5014673;28;20046;-65
2022/08/16 07:37:04;;;;;;;18.65;13.77;;;22.00;99.90;;;;;;5003682;28;20052;-64
2022/08/16 07:39:31;;;;;;;31.15;27.83;;;22.20;99.90;;;;;;5017119;28;20068;-65
2022/08/16 07:41:59;;;;;;;14.73;13.33;;;22.20;99.90;;;;;;5018734;28;20069;-67
2022/08/16 07:44:27;;;;;;;15.00;13.48;;;22.30;99.90;;;;;;5010736;28;20498;-65
2022/08/16 07:47:14;;;;;;;14.50;12.43;;;22.30;99.90;;;;;;5001836;28;20049;-67
2022/08/16 07:49:41;;;;;;;14.00;12.40;;;22.40;99.90;;;;;;5017854;28;20057;-67
2022/08/16 07:52:19;;;;;;;17.35;12.60;;;22.50;99.90;;;;;;5016003;28;20468;-66
2022/08/16 07:54:46;;;;;;;14.00;12.45;;;22.60;99.90;;;;;;5033408;28;20061;-68
2022/08/16 07:57:19;;;;;;;17.83;12.25;;;22.70;99.90;;;;;;5019366;28;20156;-66
2022/08/16 07:59:49;;;;;;;13.43;12.13;;;22.80;99.90;;;;;;5026382;28;20046;-66
2022/08/16 08:02:17;;;;;;;14.23;11.60;;;22.80;99.90;;;;;;4996824;28;20493;-66
2022/08/16 08:04:47;;;;;;;15.82;11.50;;;22.80;99.90;;;;;;5014637;28;20054;-68
2022/08/16 08:07:14;;;;;;;15.98;11.43;;;22.90;99.90;;;;;;5002409;28;20125;-65
2022/08/16 08:09:42;;;;;;;13.63;11.75;;;22.90;99.90;;;;;;5020127;28;20069;-68
2022/08/16 08:12:11;;;;;;;14.57;11.40;;;22.90;99.90;;;;;;5009353;28;20049;-64
2022/08/16 08:14:58;;;;;;;12.57;11.35;;;22.90;99.90;;;;;;5015893;28;20108;-68
2022/08/16 08:17:28;;;;;;;14.10;10.95;;;22.90;99.90;;;;;;5007778;28;20061;-65
2022/08/16 08:20:11;;;;;;;11.85;10.75;;;22.90;99.90;;;;;;5031160;28;20054;-66
2022/08/16 08:22:52;;;;;;;13.48;10.75;;;22.90;99.90;;;;;;5023417;28;20054;-65
2022/08/16 08:25:26;;;;;;;16.05;11.38;;;22.90;99.90;;;;;;5011548;28;20053;-64
2022/08/16 08:28:14;;;;;;;13.18;10.70;;;22.90;99.90;;;;;;5020268;28;20037;-67
2022/08/16 08:30:41;;;;;;;12.55;11.05;;;22.90;99.90;;;;;;5014357;28;20053;-64
2022/08/16 08:33:27;;;;;;;11.75;10.52;;;22.80;99.90;;;;;;5013737;28;20054;-64
2022/08/16 08:35:56;;;;;;;13.18;10.90;;;22.70;99.90;;;;;;5028728;28;20084;-65
2022/08/16 08:38:28;;;;;;;12.48;11.23;;;22.70;99.90;;;;;;5017028;28;20092;-64
2022/08/16 08:41:12;;;;;;;12.70;11.38;;;22.70;99.90;;;;;;5020100;28;20128;-64
2022/08/16 08:43:41;;;;;;;14.27;11.15;;;22.80;99.90;;;;;;5024748;28;20049;-67
2022/08/16 08:46:09;;;;;;;12.57;11.15;;;22.90;99.90;;;;;;5020441;28;20111;-65
2022/08/16 08:48:49;;;;;;;22.88;12.13;;;22.90;99.90;;;;;;5021787;28;20041;-62
2022/08/16 08:51:27;;;;;;;17.85;12.65;;;22.90;99.90;;;;;;5004230;28;20136;-64
2022/08/16 08:54:03;;;;;;;12.98;11.13;;;22.90;99.90;;;;;;5020646;28;20050;-64
2022/08/16 08:56:40;;;;;;;16.15;12.63;;;22.80;99.90;;;;;;5016104;28;20053;-65
2022/08/16 08:59:12;;;;;;;18.02;11.27;;;22.80;99.90;;;;;;5016430;28;20489;-65
2022/08/16 09:01:46;;;;;;;18.30;13.05;;;22.80;99.90;;;;;;5014587;28;20085;-65
2022/08/16 09:04:24;;;;;;;24.65;12.32;;;22.80;99.90;;;;;;5007700;28;20054;-64
2022/08/16 09:06:52;;;;;;;16.50;10.63;;;22.80;99.90;;;;;;5022638;28;20544;-65
2022/08/16 09:09:20;;;;;;;15.48;10.50;;;22.80;99.90;;;;;;5014927;28;20133;-63
2022/08/16 09:11:47;;;;;;;12.73;10.75;;;22.80;99.90;;;;;;5019872;28;20051;-65
2022/08/16 09:14:30;;;;;;;12.00;10.60;;;22.90;99.90;;;;;;5014930;28;20053;-63
2022/08/16 09:16:57;;;;;;;13.93;11.40;;;22.90;99.90;;;;;;5013989;28;20058;-64
2022/08/16 09:19:37;;;;;;;16.77;12.80;;;22.90;99.90;;;;;;5026459;28;20049;-66
2022/08/16 09:22:07;;;;;;;18.98;12.45;;;22.80;99.90;;;;;;5021025;28;20125;-67
2022/08/16 09:24:47;;;;;;;15.75;11.52;;;22.60;99.90;;;;;;5033920;28;20543;-66
2022/08/16 09:27:22;;;;;;;15.05;10.73;;;22.40;99.90;;;;;;5008239;28;20440;-76
2022/08/16 09:29:52;;;;;;;20.30;11.82;;;22.10;99.90;;;;;;5006419;28;20152;-67
2022/08/16 09:32:28;;;;;;;12.43;10.77;;;21.80;99.90;;;;;;5011958;28;20085;-69
2022/08/16 09:34:58;;;;;;;13.98;11.05;;;21.40;99.90;;;;;;5023849;28;20441;-65
2022/08/16 09:37:29;;;;;;;16.83;13.40;;;21.20;99.90;;;;;;5023284;28;20111;-68
2022/08/16 09:40:03;;;;;;;17.88;13.70;;;21.10;99.90;;;;;;5028196;28;20306;-66
2022/08/16 09:42:52;;;;;;;17.20;12.63;;;20.90;99.90;;;;;;5019175;28;20084;-68
2022/08/16 09:45:27;;;;;;;14.13;12.73;;;20.70;99.90;;;;;;5023002;28;20076;-67
2022/08/16 09:47:56;;;;;;;16.55;13.50;;;20.60;99.90;;;;;;5018427;28;20045;-71
2022/08/16 09:50:25;;;;;;;15.05;13.55;;;20.70;99.90;;;;;;5000660;28;20493;-70
2022/08/16 09:53:15;;;;;;;14.73;13.15;;;20.70;99.90;;;;;;5021426;28;20042;-69
2022/08/16 09:55:46;;;;;;;18.08;13.15;;;20.70;99.90;;;;;;5027259;28;20042;-72
2022/08/16 09:58:17;;;;;;;18.15;13.18;;;20.90;99.90;;;;;;5019288;28;20081;-67
2022/08/16 10:01:04;;;;;;;16.17;13.10;;;20.90;99.90;;;;;;5002018;28;20049;-65
2022/08/16 10:03:34;;;;;;;16.75;13.75;;;20.90;99.90;;;;;;5027323;28;20050;-65
2022/08/16 10:06:01;;;;;;;14.93;13.43;;;20.90;99.90;;;;;;5028859;28;20088;-67
2022/08/16 10:08:28;;;;;;;15.50;13.88;;;20.90;99.90;;;;;;5012344;28;20045;-70
2022/08/16 10:13:49;;;;;;;17.63;14.27;;;20.90;99.90;;;;;;5025185;28;20049;-68
2022/08/16 10:16:16;;;;;;;17.92;13.18;;;20.80;99.90;;;;;;5022758;28;20038;-66
2022/08/16 10:18:47;;;;;;;19.52;14.15;;;20.70;99.90;;;;;;5017842;28;20133;-74
2022/08/16 10:21:32;;;;;;;16.48;13.48;;;20.70;99.90;;;;;;5013113;28;20042;-67
2022/08/16 10:24:01;;;;;;;17.60;13.23;;;20.60;99.90;;;;;;5019342;28;20103;-72
2022/08/16 10:26:29;;;;;;;15.93;11.32;;;20.50;99.90;;;;;;5026754;28;20056;-67
2022/08/16 10:29:16;;;;;;;10.35;9.27;;;20.50;99.90;;;;;;5021999;28;20452;-70
2022/08/16 10:31:46;;;;;;;10.40;9.45;;;20.40;99.90;;;;;;5027670;28;20046;-68
2022/08/16 10:34:20;;;;;;;11.20;9.45;;;20.30;99.90;;;;;;5027627;28;20049;-71
2022/08/16 10:36:58;;;;;;;11.88;10.65;;;20.20;99.90;;;;;;5011181;28;20108;-72
2022/08/16 10:39:25;;;;;;;11.82;9.50;;;20.10;99.90;;;;;;5024040;28;20045;-73
2022/08/16 10:42:08;;;;;;;12.57;10.88;;;19.90;99.90;;;;;;5018263;28;20042;-73
2022/08/16 10:44:39;;;;;;;13.05;9.68;;;19.90;99.90;;;;;;5024109;28;20080;-78
2022/08/16 10:47:08;;;;;;;13.98;12.43;;;19.80;99.90;;;;;;5010854;28;20057;-72
2022/08/16 10:49:37;;;;;;;13.32;10.75;;;19.70;99.90;;;;;;5027248;28;20057;-69
2022/08/16 10:52:05;;;;;;;15.70;12.02;;;19.60;99.90;;;;;;5019509;28;20060;-73
2022/08/16 10:54:45;;;;;;;15.25;10.63;;;19.60;99.90;;;;;;5012038;28;20050;-70
2022/08/16 10:57:32;;;;;;;14.27;9.90;;;19.50;99.90;;;;;;4986482;28;20049;-72
2022/08/16 11:00:03;;;;;;;15.38;11.32;;;19.50;99.90;;;;;;5024381;28;20057;-67
2022/08/16 11:02:30;;;;;;;17.67;12.60;;;19.50;99.90;;;;;;5013007;28;20049;-65
2022/08/16 11:05:17;;;;;;;18.60;9.93;;;19.50;99.90;;;;;;5029478;28;20076;-66
2022/08/16 11:07:46;;;;;;;11.30;9.57;;;19.40;99.90;;;;;;5012979;28;20045;-66
2022/08/16 11:10:23;;;;;;;11.77;9.45;;;19.40;99.90;;;;;;5014084;28;20124;-69
2022/08/16 11:13:21;;;;;;;17.25;11.18;;;19.30;99.90;;;;;;5024521;28;20049;-66
2022/08/16 11:16:08;;;;;;;12.43;10.93;;;19.30;99.90;;;;;;5008879;28;20053;-65
2022/08/16 11:18:55;;;;;;;12.55;10.63;;;19.20;99.90;;;;;;5012005;28;20528;-69
2022/08/16 11:21:35;;;;;;;12.70;9.65;;;19.20;99.90;;;;;;5027946;28;20049;-70
2022/08/16 11:24:22;;;;;;;;;;;19.10;99.90;;;;;;5024830;28;20045;-73
2022/08/16 11:27:20;;;;;;;11.35;8.85;;;19.10;99.90;;;;;;5029584;28;20289;-67
2022/08/16 11:29:54;;;;;;;9.82;8.02;;;19.00;99.90;;;;;;5023234;28;20046;-66
2022/08/16 11:32:25;;;;;;;9.45;7.75;;;19.00;99.90;;;;;;5011639;28;20468;-70
2022/08/16 11:35:05;;;;;;;64.03;16.92;;;19.00;99.90;;;;;;5026576;28;20060;-72
2022/08/16 11:37:41;;;;;;;14.68;9.13;;;19.00;99.90;;;;;;5030361;28;20065;-73
2022/08/16 11:40:30;;;;;;;7.63;5.75;;;19.00;99.90;;;;;;5023096;28;20069;-74
2022/08/16 11:43:00;;;;;;;5.18;4.25;;;19.10;99.90;;;;;;5018132;28;20049;-74
2022/08/16 11:45:30;;;;;;;5.57;4.07;;;19.20;99.90;;;;;;5029188;28;20108;-69
2022/08/16 11:48:00;;;;;;;5.03;4.57;;;19.40;99.90;;;;;;5018793;28;20153;-71
2022/08/16 11:50:31;;;;;;;5.93;5.20;;;19.50;99.90;;;;;;5035103;28;20111;-72
2022/08/16 11:52:59;;;;;;;12.23;10.45;;;19.60;99.90;;;;;;5031853;28;20045;-71
2022/08/16 11:55:30;;;;;;;8.82;6.70;;;19.80;99.90;;;;;;5027033;28;20049;-77
2022/08/16 11:57:57;;;;;;;5.50;4.32;;;19.80;99.90;;;;;;4984595;28;20392;-76
2022/08/16 12:00:23;;;;;;;5.43;4.70;;;19.90;99.90;;;;;;5027792;28;20054;-75
2022/08/16 12:03:11;;;;;;;7.07;3.92;;;19.90;99.90;;;;;;5016703;28;20100;-68
2022/08/16 12:05:39;;;;;;;4.50;3.50;;;20.00;99.90;;;;;;4995472;28;20490;-65
2022/08/16 12:08:07;;;;;;;6.05;3.50;;;20.00;99.90;;;;;;5009491;28;20104;-67
2022/08/16 12:10:35;;;;;;;8.25;6.65;;;20.10;99.90;;;;;;5025624;28;20056;-69
2022/08/16 12:13:03;;;;;;;5.10;3.78;;;20.20;99.90;;;;;;5019549;28;20042;-67
2022/08/16 12:15:31;;;;;;;5.22;3.58;;;20.40;99.90;;;;;;5022870;28;20057;-68
2022/08/16 12:18:00;;;;;;;5.60;4.07;;;20.50;99.90;;;;;;5012004;28;20076;-67
2022/08/16 12:20:29;;;;;;;3.53;3.22;;;20.70;99.90;;;;;;5019636;28;20173;-66
2022/08/16 12:22:58;;;;;;;4.15;3.60;;;20.80;99.90;;;;;;5022583;28;21574;-66
2022/08/16 12:25:26;;;;;;;3.95;3.33;;;20.90;99.90;;;;;;5002498;28;20107;-66
2022/08/16 12:27:54;;;;;;;4.38;3.22;;;20.90;99.90;;;;;;5011904;28;20102;-67
2022/08/16 12:30:23;;;;;;;3.53;2.60;;;20.90;99.90;;;;;;5015250;28;20049;-66
2022/08/16 12:32:57;;;;;;;4.85;3.17;;;21.00;99.90;;;;;;4985477;28;20042;-66
2022/08/16 12:35:25;;;;;;;4.95;2.80;;;21.00;99.90;;;;;;5012755;28;20061;-65
2022/08/16 12:37:55;;;;;;;;;;;21.10;99.90;;;;;;5013182;28;20057;-67
2022/08/16 12:40:24;;;;;;;5.00;3.50;;;21.20;99.90;;;;;;5012871;28;19925;-66
2022/08/16 12:42:56;;;;;;;4.30;3.20;;;21.30;99.90;;;;;;5012926;28;20041;-66
2022/08/16 12:45:27;;;;;;;4.63;3.20;;;21.40;99.90;;;;;;5012558;28;20042;-66
2022/08/16 12:50:59;;;;;;;5.38;3.10;;;21.60;99.90;;;;;;5017075;28;20057;-66
2022/08/16 12:53:27;;;;;;;3.05;2.75;;;21.70;99.90;;;;;;5027077;28;20536;-65
2022/08/16 12:55:58;;;;;;;3.33;2.85;;;21.90;99.90;;;;;;5027435;28;20434;-67
2022/08/16 12:58:26;;;;;;;2.97;2.53;;;21.90;99.90;;;;;;5021492;28;20140;-70
2022/08/16 13:01:13;;;;;;;3.83;2.23;;;21.90;99.90;;;;;;5025488;28;20045;-69
2022/08/16 13:03:40;;;;;;;3.08;2.30;;;21.90;99.90;;;;;;4990544;28;20104;-66
2022/08/16 13:06:08;;;;;;;12.98;11.18;;;21.80;99.90;;;;;;5024831;28;20064;-67
2022/08/16 13:08:35;;;;;;;3.88;3.22;;;21.80;99.90;;;;;;5016677;28;20050;-67
2022/08/16 13:11:03;;;;;;;4.20;3.00;;;21.90;99.90;;;;;;5012120;28;20052;-66
2022/08/16 13:13:34;;;;;;;4.07;3.47;;;21.90;99.90;;;;;;5011543;28;20191;-66